createdAt,value
2019-03-06T00:01:37.901Z,98478.20
2019-03-06T00:04:04.631Z,98475.58
2019-03-06T00:06:31.389Z,98474.78
2019-03-06T00:08:58.535Z,98476.39
2019-03-06T00:11:27.736Z,98472.14
2019-03-06T00:13:54.465Z,98469.50
2019-03-06T00:16:21.188Z,98474.74
2019-03-06T00:18:47.919Z,98475.77
2019-03-06T00:21:18.273Z,98472.09
2019-03-06T00:23:45.015Z,98469.42
2019-03-06T00:26:11.761Z,98470.73
2019-03-06T00:28:38.496Z,98469.13
2019-03-06T00:31:05.209Z,98469.13
2019-03-06T00:33:31.973Z,98466.55
2019-03-06T00:35:59.581Z,98458.61
2019-03-06T00:38:26.329Z,98458.09
2019-03-06T00:40:59.695Z,98453.16
2019-03-06T00:43:26.421Z,98451.77
2019-03-06T00:45:56.159Z,98456.50
2019-03-06T00:48:22.915Z,98452.85
2019-03-06T00:50:49.699Z,98450.77
2019-03-06T00:53:17.353Z,98438.64
2019-03-06T00:55:44.402Z,98436.28
2019-03-06T00:58:11.174Z,98437.09
2019-03-06T01:00:37.935Z,98439.66
2019-03-06T01:03:04.831Z,98433.31
2019-03-06T01:05:31.587Z,98433.08
2019-03-06T01:07:58.340Z,98426.77
2019-03-06T01:10:25.094Z,98440.13
2019-03-06T01:12:54.787Z,98424.58
2019-03-06T01:15:21.535Z,98411.47
2019-03-06T01:17:48.681Z,98406.41
2019-03-06T01:20:15.558Z,98430.63
2019-03-06T01:22:42.317Z,98393.87
2019-03-06T01:25:09.195Z,98393.33
2019-03-06T01:27:36.021Z,98390.16
2019-03-06T01:30:03.438Z,98388.83
2019-03-06T01:32:32.488Z,98387.47
2019-03-06T01:35:19.093Z,98399.58
2019-03-06T01:38:04.617Z,98398.00
2019-03-06T01:40:49.525Z,98394.26
2019-03-06T01:43:20.859Z,98393.47
2019-03-06T01:45:47.599Z,98396.61
2019-03-06T01:48:14.542Z,98381.80
2019-03-06T01:50:41.263Z,98370.22
2019-03-06T01:53:08.056Z,98376.22
2019-03-06T01:55:34.884Z,98377.44
2019-03-06T01:58:01.622Z,98367.78
2019-03-06T02:00:28.472Z,98375.65
2019-03-06T02:05:35.727Z,98334.63
2019-03-06T02:08:02.460Z,98338.78
2019-03-06T02:10:29.401Z,98351.38
2019-03-06T02:12:56.153Z,98349.34
2019-03-06T02:15:22.887Z,98356.08
2019-03-06T02:17:49.624Z,98352.83
2019-03-06T02:20:16.552Z,98350.95
2019-03-06T02:22:43.310Z,98339.89
2019-03-06T02:25:10.051Z,98332.02
2019-03-06T02:27:36.991Z,98325.25
2019-03-06T02:30:06.812Z,98321.62
2019-03-06T02:32:33.634Z,98325.53
2019-03-06T02:35:00.527Z,98321.62
2019-03-06T02:37:27.317Z,98314.30
2019-03-06T02:39:54.246Z,98316.66
2019-03-06T02:42:20.990Z,98313.44
2019-03-06T02:44:47.738Z,98312.86
2019-03-06T02:47:14.458Z,98309.05
2019-03-06T02:49:42.294Z,98307.70
2019-03-06T02:52:09.780Z,98307.20
2019-03-06T02:54:36.561Z,98304.80
2019-03-06T02:57:04.485Z,98312.59
2019-03-06T02:59:53.794Z,98302.77
2019-03-06T03:02:43.134Z,98290.14
2019-03-06T03:05:29.023Z,98288.14
2019-03-06T03:07:56.001Z,98279.81
2019-03-06T03:10:23.225Z,98281.38
2019-03-06T03:12:49.950Z,98288.76
2019-03-06T03:15:19.306Z,98288.84
2019-03-06T03:17:46.025Z,98272.23
2019-03-06T03:20:12.740Z,98281.41
2019-03-06T03:22:39.496Z,98263.28
2019-03-06T03:25:06.577Z,98263.28
2019-03-06T03:27:33.345Z,98277.24
2019-03-06T03:30:00.653Z,98269.06
2019-03-06T03:32:27.648Z,98263.02
2019-03-06T03:34:54.412Z,98255.18
2019-03-06T03:37:21.170Z,98246.76
2019-03-06T03:39:48.141Z,98257.22
2019-03-06T03:42:14.918Z,98254.27
2019-03-06T03:44:42.035Z,98256.06
2019-03-06T03:47:08.912Z,98250.77
2019-03-06T03:49:35.705Z,98255.04
2019-03-06T03:52:02.569Z,98237.43
2019-03-06T03:54:29.606Z,98231.91
2019-03-06T03:56:56.429Z,98230.36
2019-03-06T03:59:25.899Z,98232.19
2019-03-06T04:01:52.674Z,98224.28
2019-03-06T04:04:21.756Z,98229.95
2019-03-06T04:06:48.509Z,98232.21
2019-03-06T04:09:15.254Z,98228.28
2019-03-06T04:11:41.986Z,98237.51
2019-03-06T04:14:08.716Z,98238.39
2019-03-06T04:16:35.610Z,98238.39
2019-03-06T04:19:02.442Z,98245.77
2019-03-06T04:21:29.179Z,98243.56
2019-03-06T04:23:56.031Z,98237.88
2019-03-06T04:26:24.156Z,98233.47
2019-03-06T04:28:51.277Z,98233.47
2019-03-06T04:31:19.668Z,98222.95
2019-03-06T04:33:46.431Z,98208.75
2019-03-06T04:36:13.901Z,98208.75
2019-03-06T04:38:40.635Z,98204.25
2019-03-06T04:41:07.355Z,98197.84
2019-03-06T04:43:34.202Z,98197.84
2019-03-06T04:46:01.367Z,98200.39
2019-03-06T04:48:28.106Z,98181.75
2019-03-06T04:50:54.852Z,98192.83
2019-03-06T04:53:21.552Z,98193.50
2019-03-06T04:55:48.285Z,98195.00
2019-03-06T04:58:15.013Z,98186.58
2019-03-06T05:00:42.063Z,98185.84
2019-03-06T05:03:08.792Z,98185.84
2019-03-06T05:05:35.566Z,98188.48
2019-03-06T05:08:02.291Z,98184.75
2019-03-06T05:10:29.038Z,98183.09
2019-03-06T05:12:55.769Z,98196.43
2019-03-06T05:15:22.640Z,98195.35
2019-03-06T05:18:00.046Z,98191.39
2019-03-06T05:20:26.811Z,98183.77
2019-03-06T05:22:54.037Z,98173.96
2019-03-06T05:25:20.762Z,98173.96
2019-03-06T05:27:47.506Z,98163.72
2019-03-06T05:30:14.924Z,98163.72
2019-03-06T05:32:41.747Z,98163.94
2019-03-06T05:35:39.033Z,98163.94
2019-03-06T05:38:16.466Z,98153.79
2019-03-06T05:40:43.210Z,98146.64
2019-03-06T05:43:09.948Z,98137.93
2019-03-06T05:45:36.688Z,98137.93
2019-03-06T05:48:03.531Z,98134.73
2019-03-06T05:50:30.326Z,98138.81
2019-03-06T05:52:57.118Z,98126.41
2019-03-06T05:55:23.843Z,98111.98
2019-03-06T05:57:50.588Z,98111.98
2019-03-06T06:00:18.957Z,98122.48
2019-03-06T06:02:45.707Z,98125.64
2019-03-06T06:05:12.480Z,98125.64
2019-03-06T06:07:39.333Z,98103.45
2019-03-06T06:10:08.822Z,98100.58
2019-03-06T06:12:35.580Z,98103.58
2019-03-06T06:15:03.968Z,98101.47
2019-03-06T06:17:30.820Z,98101.47
2019-03-06T06:19:57.776Z,98089.92
2019-03-06T06:22:43.001Z,98099.98
2019-03-06T06:25:09.713Z,98099.98
2019-03-06T06:27:36.442Z,98090.88
2019-03-06T06:30:03.264Z,98089.95
2019-03-06T06:32:30.083Z,98093.39
2019-03-06T06:34:56.825Z,98086.70
2019-03-06T06:37:23.678Z,98086.53
2019-03-06T06:39:50.583Z,98086.53
2019-03-06T06:42:17.314Z,98081.86
2019-03-06T06:44:44.201Z,98081.86
2019-03-06T06:47:11.084Z,98071.18
2019-03-06T06:49:37.992Z,98075.41
2019-03-06T06:52:23.428Z,98075.41
2019-03-06T06:55:27.558Z,98074.44
2019-03-06T06:58:31.564Z,98048.28
2019-03-06T07:01:37.967Z,98056.21
2019-03-06T07:05:12.026Z,98056.21
2019-03-06T07:07:58.882Z,98058.63
2019-03-06T07:10:36.775Z,98048.70
2019-03-06T07:13:24.311Z,98048.70
2019-03-06T07:16:24.643Z,98050.02
2019-03-06T07:19:18.979Z,98044.25
2019-03-06T07:21:56.718Z,98031.92
2019-03-06T07:24:48.817Z,98031.92
2019-03-06T07:27:26.971Z,98042.19
2019-03-06T07:30:03.558Z,98034.05
2019-03-06T07:32:52.475Z,98028.53
2019-03-06T07:36:15.147Z,98028.55
2019-03-06T07:38:43.028Z,98020.92
2019-03-06T07:41:27.775Z,98018.83
2019-03-06T07:44:15.083Z,98015.14
2019-03-06T07:47:00.327Z,98021.95
2019-03-06T07:49:44.436Z,98014.32
2019-03-06T07:52:18.738Z,98018.02
2019-03-06T07:55:17.114Z,98015.08
2019-03-06T07:58:20.492Z,98011.41
2019-03-06T08:00:47.538Z,98019.77
2019-03-06T08:03:22.283Z,98012.90
2019-03-06T08:05:49.614Z,98011.01
2019-03-06T08:08:16.331Z,98010.44
2019-03-06T08:10:43.100Z,98009.35
2019-03-06T08:13:34.937Z,97999.33
2019-03-06T08:16:09.387Z,97997.94
2019-03-06T08:19:01.730Z,97996.37
2019-03-06T08:21:42.545Z,97987.91
2019-03-06T08:24:16.739Z,97989.74
2019-03-06T08:26:43.569Z,97979.70
2019-03-06T08:29:10.367Z,97998.91
2019-03-06T08:31:58.623Z,97982.54
2019-03-06T08:34:25.357Z,97975.11
2019-03-06T08:36:52.208Z,97980.78
2019-03-06T08:39:22.733Z,97968.39
2019-03-06T08:41:49.476Z,97965.22
2019-03-06T08:44:16.617Z,97961.74
2019-03-06T08:47:12.289Z,97963.27
2019-03-06T08:50:13.959Z,97954.52
2019-03-06T08:52:51.896Z,97962.11
2019-03-06T08:55:28.197Z,97950.13
2019-03-06T08:58:07.336Z,97949.55
2019-03-06T09:01:08.885Z,97942.78
2019-03-06T09:03:58.119Z,97945.95
2019-03-06T09:06:39.815Z,97936.24
2019-03-06T09:09:26.503Z,97937.78
2019-03-06T09:12:09.695Z,97927.94
2019-03-06T09:14:56.373Z,97919.98
2019-03-06T09:17:45.495Z,97922.22
2019-03-06T09:20:37.175Z,97907.31
2019-03-06T09:23:29.340Z,97912.56
2019-03-06T09:26:16.711Z,97909.09
2019-03-06T09:28:50.008Z,97912.53
2019-03-06T09:31:23.297Z,97909.77
2019-03-06T09:34:09.781Z,97905.66
2019-03-06T09:36:59.059Z,97907.80
2019-03-06T09:39:54.478Z,97929.51
2019-03-06T09:42:32.991Z,97898.89
2019-03-06T09:45:09.193Z,97884.13
2019-03-06T09:47:46.051Z,97876.27
2019-03-06T09:50:22.933Z,97872.59
2019-03-06T09:53:13.284Z,97876.20
2019-03-06T09:56:11.633Z,97864.77
2019-03-06T09:59:17.731Z,97868.84
2019-03-06T10:02:06.753Z,97863.36
2019-03-06T10:04:36.530Z,97873.19
2019-03-06T10:07:22.936Z,97853.81
2019-03-06T10:10:10.304Z,97849.91
2019-03-06T10:13:03.498Z,97839.00
2019-03-06T10:15:55.891Z,97881.33
2019-03-06T10:18:27.934Z,97837.36
2019-03-06T10:20:54.875Z,97833.59
2019-03-06T10:23:21.649Z,97835.87
2019-03-06T10:25:49.522Z,97827.50
2019-03-06T10:28:16.265Z,97825.12
2019-03-06T10:30:43.014Z,97819.28
2019-03-06T10:33:09.743Z,97852.98
2019-03-06T10:35:36.487Z,97816.31
2019-03-06T10:38:03.222Z,97814.23
2019-03-06T10:40:30.605Z,97812.30
2019-03-06T10:42:59.531Z,97809.33
2019-03-06T10:45:27.674Z,97791.29
2019-03-06T10:47:54.821Z,97786.65
2019-03-06T10:50:27.360Z,97789.16
2019-03-06T10:52:53.018Z,97779.87
2019-03-06T10:55:19.885Z,97778.92
2019-03-06T10:57:48.813Z,97774.85
2019-03-06T11:00:19.791Z,97778.91
2019-03-06T11:02:47.232Z,97772.08
2019-03-06T11:05:23.552Z,97765.45
2019-03-06T11:07:53.147Z,97768.02
2019-03-06T11:10:23.714Z,97762.23
2019-03-06T11:12:49.041Z,97762.42
2019-03-06T11:15:16.435Z,97761.56
2019-03-06T11:17:43.382Z,97779.92
2019-03-06T11:20:12.475Z,97762.75
2019-03-06T11:22:39.359Z,97753.84
2019-03-06T11:25:06.562Z,97757.05
2019-03-06T11:27:33.355Z,97755.56
2019-03-06T11:30:02.835Z,97756.09
2019-03-06T11:32:29.970Z,97754.45
2019-03-06T11:34:56.796Z,97746.19
2019-03-06T11:37:23.503Z,97743.19
2019-03-06T11:39:50.229Z,97728.73
2019-03-06T11:42:17.462Z,97732.08
2019-03-06T11:44:44.272Z,97734.03
2019-03-06T11:47:12.132Z,97723.70
2019-03-06T11:49:38.952Z,97727.98
2019-03-06T11:52:06.556Z,97432.49
2019-03-06T11:54:33.387Z,97708.84
2019-03-06T11:57:00.143Z,97693.03
2019-03-06T11:59:26.831Z,97697.83
2019-03-06T12:01:56.940Z,97727.58
2019-03-06T12:04:23.647Z,97694.78
2019-03-06T12:06:50.762Z,97675.20
2019-03-06T12:09:29.042Z,97674.41
2019-03-06T12:11:55.783Z,97682.45
2019-03-06T12:14:22.655Z,97654.89
2019-03-06T12:16:49.691Z,97660.12
2019-03-06T12:19:16.504Z,97648.47
2019-03-06T12:21:44.211Z,97648.63
2019-03-06T12:24:13.199Z,97636.11
2019-03-06T12:26:42.341Z,97636.00
2019-03-06T12:29:09.128Z,97639.56
2019-03-06T12:31:36.172Z,97616.64
2019-03-06T12:34:03.051Z,97619.29
2019-03-06T12:36:29.908Z,97608.56
2019-03-06T12:38:57.487Z,97602.73
2019-03-06T12:41:24.306Z,97602.11
2019-03-06T12:43:51.046Z,97601.34
2019-03-06T12:46:23.767Z,97602.37
2019-03-06T12:49:01.831Z,97601.49
2019-03-06T12:51:31.729Z,97633.81
2019-03-06T12:53:58.758Z,97606.86
2019-03-06T12:56:26.057Z,97603.19
2019-03-06T12:58:52.857Z,97594.55
2019-03-06T13:01:19.549Z,97592.98
2019-03-06T13:03:47.469Z,97590.41
2019-03-06T13:06:24.191Z,97582.10
2019-03-06T13:08:50.407Z,97598.20
2019-03-06T13:11:12.473Z,97563.77
2019-03-06T13:13:39.315Z,97559.20
2019-03-06T13:16:06.057Z,97566.62
2019-03-06T13:18:32.808Z,97549.98
2019-03-06T13:21:01.573Z,97555.63
2019-03-06T13:23:30.381Z,97548.61
2019-03-06T13:25:57.282Z,97552.94
2019-03-06T13:28:24.026Z,97547.06
2019-03-06T13:30:50.753Z,97549.72
2019-03-06T13:33:26.038Z,97549.72
2019-03-06T13:35:52.740Z,97536.73
2019-03-06T13:38:19.464Z,97532.81
2019-03-06T13:40:46.205Z,97537.48
2019-03-06T13:43:12.942Z,97534.38
2019-03-06T13:45:39.900Z,97526.32
2019-03-06T13:48:06.623Z,97522.61
2019-03-06T13:50:33.346Z,97515.93
2019-03-06T13:53:00.071Z,97515.39
2019-03-06T13:55:36.479Z,97507.40
2019-03-06T13:58:06.368Z,97505.77
2019-03-06T14:00:33.124Z,97496.38
2019-03-06T14:02:59.872Z,97512.79
2019-03-06T14:05:28.556Z,97497.91
2019-03-06T14:07:56.673Z,97498.95
2019-03-06T14:10:24.252Z,97505.61
2019-03-06T14:12:59.494Z,97502.41
2019-03-06T14:15:26.223Z,97499.94
2019-03-06T14:17:53.049Z,97500.42
2019-03-06T14:20:20.948Z,97500.98
2019-03-06T14:22:47.646Z,97502.42
2019-03-06T14:25:14.525Z,97493.97
2019-03-06T14:27:41.796Z,97495.11
2019-03-06T14:30:09.866Z,97491.11
2019-03-06T14:32:38.584Z,97491.13
2019-03-06T14:35:05.422Z,97493.68
2019-03-06T14:37:32.676Z,97509.22
2019-03-06T14:40:03.035Z,97488.46
2019-03-06T14:42:28.164Z,97478.33
2019-03-06T14:44:58.400Z,97486.31
2019-03-06T14:47:25.136Z,97475.31
2019-03-06T14:49:51.990Z,97473.31
2019-03-06T14:52:18.947Z,97468.47
2019-03-06T14:54:45.779Z,97472.33
2019-03-06T14:57:12.885Z,97477.98
2019-03-06T14:59:39.719Z,97470.47
2019-03-06T15:02:07.024Z,97472.45
2019-03-06T15:04:33.780Z,97506.13
2019-03-06T15:07:00.888Z,97472.70
2019-03-06T15:09:27.761Z,97467.47
2019-03-06T15:11:54.918Z,97475.27
2019-03-06T15:14:21.737Z,97462.81
2019-03-06T15:16:48.442Z,97464.81
2019-03-06T15:19:15.416Z,97471.16
2019-03-06T15:21:42.135Z,97466.66
2019-03-06T15:24:08.861Z,97460.44
2019-03-06T15:26:35.763Z,97477.30
2019-03-06T15:29:02.618Z,97474.67
2019-03-06T15:31:29.472Z,97488.39
2019-03-06T15:33:56.312Z,97486.71
2019-03-06T15:36:23.117Z,97471.14
2019-03-06T15:38:49.878Z,97472.65
2019-03-06T15:41:16.592Z,97466.42
2019-03-06T15:43:43.419Z,97460.72
2019-03-06T15:46:10.498Z,97463.84
2019-03-06T15:48:37.326Z,97464.29
2019-03-06T15:51:04.471Z,97455.14
2019-03-06T15:53:33.538Z,97453.28
2019-03-06T15:56:00.264Z,97454.59
2019-03-06T15:58:27.006Z,97447.69
2019-03-06T16:00:53.778Z,97452.81
2019-03-06T16:03:20.538Z,97452.60
2019-03-06T16:05:47.256Z,97449.41
2019-03-06T16:08:14.226Z,97448.74
2019-03-06T16:10:41.269Z,97444.93
2019-03-06T16:13:08.126Z,97442.64
2019-03-06T16:15:34.813Z,97438.48
2019-03-06T16:18:02.028Z,97446.66
2019-03-06T16:20:31.629Z,97453.34
2019-03-06T16:22:58.353Z,97441.83
2019-03-06T16:25:25.047Z,97457.14
2019-03-06T16:27:52.178Z,97459.05
2019-03-06T16:30:19.104Z,97458.68
2019-03-06T16:32:45.835Z,97453.91
2019-03-06T16:35:12.566Z,97451.10
2019-03-06T16:37:39.374Z,97451.22
2019-03-06T16:40:13.547Z,97454.55
2019-03-06T16:42:40.399Z,97451.77
2019-03-06T16:45:12.946Z,97488.71
2019-03-06T16:47:39.988Z,97457.95
2019-03-06T16:50:14.306Z,97095.15
2019-03-06T16:52:36.822Z,97445.48
2019-03-06T16:55:04.551Z,97458.52
2019-03-06T16:57:31.461Z,97432.80
2019-03-06T16:59:58.213Z,97428.69
2019-03-06T17:02:27.526Z,97417.86
2019-03-06T17:04:54.677Z,97457.48
2019-03-06T17:07:21.578Z,97410.70
2019-03-06T17:09:48.672Z,97406.13
2019-03-06T17:12:15.487Z,97396.19
2019-03-06T17:14:42.371Z,97394.40
2019-03-06T17:17:09.236Z,97447.84
2019-03-06T17:19:36.002Z,97391.94
2019-03-06T17:22:02.726Z,97393.20
2019-03-06T17:24:29.621Z,97395.67
2019-03-06T17:27:23.636Z,97383.70
2019-03-06T17:29:50.504Z,97387.34
2019-03-06T17:32:17.420Z,97388.23
2019-03-06T17:34:44.192Z,97385.28
2019-03-06T17:37:11.604Z,97376.77
2019-03-06T17:39:38.927Z,97372.00
2019-03-06T17:42:05.657Z,97367.61
2019-03-06T17:44:32.924Z,97363.83
2019-03-06T17:46:59.951Z,97363.52
2019-03-06T17:49:29.807Z,97351.80
2019-03-06T17:51:56.504Z,97354.97
2019-03-06T17:54:23.252Z,97347.42
2019-03-06T17:56:50.003Z,97344.07
2019-03-06T17:59:16.865Z,97343.86
2019-03-06T18:01:44.366Z,97331.34
2019-03-06T18:04:14.243Z,97336.98
2019-03-06T18:06:41.010Z,97326.37
2019-03-06T18:09:07.750Z,97327.23
2019-03-06T18:11:38.909Z,97323.59
2019-03-06T18:14:07.237Z,97320.29
2019-03-06T18:16:34.498Z,97329.20
2019-03-06T18:19:01.600Z,97314.66
2019-03-06T18:21:28.335Z,97312.42
2019-03-06T18:23:55.073Z,97305.66
2019-03-06T18:26:21.912Z,97304.80
2019-03-06T18:28:48.763Z,97294.73
2019-03-06T18:31:15.496Z,97297.47
2019-03-06T18:33:42.225Z,97285.23
2019-03-06T18:36:09.087Z,97284.98
2019-03-06T18:38:35.822Z,97275.16
2019-03-06T18:41:02.671Z,97267.63
2019-03-06T18:43:29.411Z,97268.95
2019-03-06T18:45:59.018Z,97270.41
2019-03-06T18:48:28.613Z,97293.64
2019-03-06T18:50:55.337Z,97261.03
2019-03-06T18:53:22.725Z,97260.91
2019-03-06T18:55:49.766Z,97269.62
2019-03-06T18:58:18.289Z,97260.13
2019-03-06T19:00:45.404Z,97263.56
2019-03-06T19:03:12.228Z,97249.84
2019-03-06T19:05:40.970Z,97258.02
2019-03-06T19:08:08.155Z,97247.53
2019-03-06T19:10:34.997Z,97251.34
2019-03-06T19:13:01.778Z,97254.41
2019-03-06T19:15:28.771Z,97253.75
2019-03-06T19:17:55.520Z,97254.66
2019-03-06T19:20:22.349Z,97236.43
2019-03-06T19:22:49.682Z,97241.19
2019-03-06T19:25:16.664Z,97243.80
2019-03-06T19:27:43.517Z,97258.59
2019-03-06T19:30:21.409Z,97243.11
2019-03-06T19:32:50.957Z,97247.63
2019-03-06T19:35:18.637Z,97239.38
2019-03-06T19:37:45.354Z,97238.22
2019-03-06T19:40:12.812Z,97244.22
2019-03-06T19:42:39.731Z,97247.20
2019-03-06T19:45:07.213Z,97237.19
2019-03-06T19:47:33.945Z,97227.70
2019-03-06T19:50:00.663Z,97225.76
2019-03-06T19:52:27.364Z,97218.30
2019-03-06T19:54:54.117Z,97217.13
2019-03-06T19:57:20.835Z,97206.36
2019-03-06T19:59:49.268Z,97206.91
2019-03-06T20:02:16.238Z,97195.72
2019-03-06T20:04:43.381Z,97193.98
2019-03-06T20:07:10.098Z,97190.96
2019-03-06T20:09:36.829Z,97185.20
2019-03-06T20:12:08.685Z,97202.05
2019-03-06T20:14:35.576Z,97184.70
2019-03-06T20:17:02.304Z,97178.48
2019-03-06T20:19:29.843Z,97175.67
2019-03-06T20:21:59.285Z,97179.52
2019-03-06T20:24:26.071Z,97182.70
2019-03-06T20:26:52.908Z,97185.73
2019-03-06T20:29:19.625Z,97178.03
2019-03-06T20:31:46.481Z,97176.24
2019-03-06T20:34:13.203Z,97177.48
2019-03-06T20:36:39.915Z,97212.08
2019-03-06T20:39:06.920Z,97173.27
2019-03-06T20:41:33.626Z,97180.94
2019-03-06T20:44:00.325Z,97176.18
2019-03-06T20:46:27.150Z,97173.83
2019-03-06T20:48:54.121Z,97163.80
2019-03-06T20:51:21.233Z,97162.64
2019-03-06T20:53:47.946Z,97161.73
2019-03-06T20:56:15.253Z,97160.48
2019-03-06T20:58:41.946Z,97160.16
2019-03-06T21:01:08.682Z,97159.86
2019-03-06T21:03:35.752Z,97160.45
2019-03-06T21:06:02.517Z,97167.13
2019-03-06T21:08:30.325Z,97166.04
2019-03-06T21:10:57.170Z,97203.20
2019-03-06T21:13:23.916Z,97170.80
2019-03-06T21:15:50.666Z,97176.09
2019-03-06T21:18:17.383Z,97182.45
2019-03-06T21:20:44.371Z,97191.75
2019-03-06T21:23:13.741Z,97188.45
2019-03-06T21:25:40.507Z,97196.94
2019-03-06T21:28:07.675Z,97189.73
2019-03-06T21:30:36.621Z,97185.43
2019-03-06T21:33:03.396Z,97186.67
2019-03-06T21:35:30.223Z,97185.54
2019-03-06T21:37:56.948Z,97187.16
2019-03-06T21:40:24.677Z,97180.86
2019-03-06T21:42:53.334Z,97184.97
2019-03-06T21:45:20.065Z,97175.41
2019-03-06T21:47:46.862Z,97173.00
2019-03-06T21:50:16.993Z,97167.30
2019-03-06T21:52:45.387Z,97169.02
2019-03-06T21:55:12.423Z,97174.47
2019-03-06T21:57:39.393Z,97196.44
2019-03-06T22:00:09.763Z,97163.13
2019-03-06T22:02:36.564Z,97160.56
2019-03-06T22:05:04.536Z,97149.92
2019-03-06T22:07:31.639Z,97150.23
2019-03-06T22:09:59.567Z,97155.77
2019-03-06T22:12:27.090Z,97136.92
2019-03-06T22:14:54.360Z,97149.45
2019-03-06T22:17:26.566Z,97142.84
2019-03-06T22:19:56.156Z,97161.84
2019-03-06T22:22:24.224Z,97134.92
2019-03-06T22:24:56.556Z,97155.34
2019-03-06T22:27:49.885Z,97130.88
2019-03-06T22:34:39.602Z,97131.70
2019-03-06T22:37:08.976Z,97110.38
2019-03-06T22:39:36.502Z,97099.05
2019-03-06T22:42:06.020Z,97098.41
2019-03-06T22:44:33.861Z,97100.52
2019-03-06T22:47:02.784Z,97083.17
2019-03-06T22:49:29.706Z,97069.38
2019-03-06T22:52:09.862Z,97102.98
2019-03-06T22:54:41.289Z,97079.72
2019-03-06T22:57:11.789Z,97080.13
2019-03-06T22:59:41.955Z,97078.73
2019-03-06T23:02:12.214Z,97076.33
2019-03-06T23:04:39.451Z,97077.57
2019-03-06T23:07:06.285Z,97074.83
2019-03-06T23:09:33.422Z,97064.37
2019-03-06T23:12:00.218Z,97066.23
2019-03-06T23:14:27.012Z,97063.86
2019-03-06T23:16:54.101Z,97048.03
2019-03-06T23:19:21.062Z,97048.52
2019-03-06T23:21:47.840Z,97040.88
2019-03-06T23:24:15.002Z,97057.41
2019-03-06T23:26:43.190Z,97033.34
2019-03-06T23:29:10.364Z,97034.05
2019-03-06T23:31:37.966Z,97022.89
2019-03-06T23:34:04.811Z,97023.76
2019-03-06T23:36:33.366Z,97013.63
2019-03-06T23:39:00.278Z,97018.55
2019-03-06T23:41:27.209Z,97002.55
2019-03-06T23:43:56.500Z,97012.84
2019-03-06T23:46:26.247Z,97008.22
2019-03-06T23:48:53.346Z,96999.02
2019-03-06T23:51:25.601Z,96998.20
2019-03-06T23:53:53.884Z,96984.55
2019-03-06T23:56:32.054Z,96986.59
2019-03-06T23:59:40.986Z,96995.08
